createdAt,value
2022-11-25T00:01:33.289Z,15.40
2022-11-25T00:04:02.483Z,15.40
2022-11-25T00:06:33.921Z,15.40
2022-11-25T00:09:04.654Z,15.40
2022-11-25T00:11:33.057Z,15.40
2022-11-25T00:14:01.542Z,15.40
2022-11-25T00:16:29.854Z,15.40
2022-11-25T00:18:59.537Z,15.50
2022-11-25T00:21:29.285Z,15.40
2022-11-25T00:24:00.280Z,15.40
2022-11-25T00:26:30.213Z,15.40
2022-11-25T00:29:00.941Z,15.40
2022-11-25T00:31:31.090Z,15.40
2022-11-25T00:34:00.141Z,15.40
2022-11-25T00:36:30.416Z,15.40
2022-11-25T00:39:02.093Z,15.40
2022-11-25T00:41:48.469Z,15.40
2022-11-25T00:44:37.781Z,15.40
2022-11-25T00:47:08.429Z,15.40
2022-11-25T00:49:37.125Z,15.40
2022-11-25T00:52:06.767Z,15.40
2022-11-25T00:54:36.732Z,15.40
2022-11-25T00:57:05.406Z,15.50
2022-11-25T00:59:33.816Z,15.40
2022-11-25T01:02:02.166Z,15.40
2022-11-25T01:04:30.645Z,15.40
2022-11-25T01:07:00.211Z,15.40
2022-11-25T01:09:29.528Z,15.40
2022-11-25T01:11:59.392Z,15.40
2022-11-25T01:14:27.917Z,15.40
2022-11-25T01:16:56.415Z,15.40
2022-11-25T01:19:26.566Z,15.40
2022-11-25T01:21:54.925Z,15.50
2022-11-25T01:24:24.201Z,15.40
2022-11-25T01:26:52.693Z,15.40
2022-11-25T01:29:22.493Z,15.40
2022-11-25T01:31:51.157Z,15.40
2022-11-25T01:34:21.936Z,15.40
2022-11-25T01:36:50.609Z,15.40
2022-11-25T01:39:20.956Z,15.40
2022-11-25T01:41:50.062Z,15.40
2022-11-25T01:44:20.664Z,15.40
2022-11-25T01:46:55.162Z,15.40
2022-11-25T01:49:30.265Z,15.40
2022-11-25T01:52:04.101Z,15.40
2022-11-25T01:54:40.786Z,15.40
2022-11-25T01:57:14.895Z,15.40
2022-11-25T01:59:48.974Z,15.40
2022-11-25T02:02:20.399Z,15.40
2022-11-25T02:04:50.420Z,15.40
2022-11-25T02:07:25.868Z,15.30
2022-11-25T02:09:55.312Z,15.30
2022-11-25T02:12:24.354Z,15.30
2022-11-25T02:14:55.341Z,15.30
2022-11-25T02:17:25.289Z,15.30
2022-11-25T02:20:01.335Z,15.30
2022-11-25T02:22:46.280Z,15.30
2022-11-25T02:25:23.608Z,15.30
2022-11-25T02:27:55.668Z,15.20
2022-11-25T02:30:25.053Z,15.30
2022-11-25T02:32:53.666Z,15.30
2022-11-25T02:35:29.358Z,15.30
2022-11-25T02:38:01.200Z,15.20
2022-11-25T02:40:31.465Z,15.20
2022-11-25T02:43:01.818Z,15.20
2022-11-25T02:45:50.429Z,15.20
2022-11-25T02:48:18.956Z,15.20
2022-11-25T02:50:47.380Z,15.20
2022-11-25T02:53:15.832Z,15.20
2022-11-25T02:55:45.733Z,15.20
2022-11-25T02:58:14.873Z,15.20
2022-11-25T03:00:44.033Z,15.20
2022-11-25T03:03:12.781Z,15.20
2022-11-25T03:05:41.485Z,15.20
2022-11-25T03:08:10.852Z,15.20
2022-11-25T03:10:39.878Z,15.10
2022-11-25T03:13:10.957Z,15.10
2022-11-25T03:15:39.603Z,15.10
2022-11-25T03:18:09.025Z,15.10
2022-11-25T03:20:38.079Z,15.10
2022-11-25T03:23:07.311Z,15.10
2022-11-25T03:25:37.043Z,15.10
2022-11-25T03:28:05.987Z,15.10
2022-11-25T03:30:36.098Z,15.10
2022-11-25T03:33:04.660Z,15.10
2022-11-25T03:35:33.041Z,15.10
2022-11-25T03:38:01.364Z,15.00
2022-11-25T03:40:29.746Z,15.00
2022-11-25T03:42:58.147Z,15.00
2022-11-25T03:45:26.572Z,15.00
2022-11-25T03:47:56.383Z,15.00
2022-11-25T03:50:24.828Z,15.00
2022-11-25T03:52:53.147Z,15.00
2022-11-25T03:55:21.786Z,15.00
2022-11-25T03:57:50.175Z,15.00
2022-11-25T04:00:19.126Z,15.00
2022-11-25T04:02:47.603Z,15.00
2022-11-25T04:05:17.735Z,15.00
2022-11-25T04:07:46.215Z,15.00
2022-11-25T04:10:14.771Z,15.00
2022-11-25T04:12:49.342Z,15.00
2022-11-25T04:15:18.822Z,14.90
2022-11-25T04:17:47.185Z,14.90
2022-11-25T04:20:17.428Z,14.90
2022-11-25T04:22:45.870Z,14.90
2022-11-25T04:25:14.691Z,14.90
2022-11-25T04:27:43.113Z,14.90
2022-11-25T04:30:12.222Z,14.90
2022-11-25T04:32:40.690Z,14.90
2022-11-25T04:35:09.781Z,14.90
2022-11-25T04:37:39.622Z,14.90
2022-11-25T04:40:09.093Z,14.90
2022-11-25T04:42:39.772Z,14.90
2022-11-25T04:45:22.859Z,14.90
2022-11-25T04:47:51.868Z,14.90
2022-11-25T04:50:23.344Z,14.80
2022-11-25T04:52:53.227Z,14.90
2022-11-25T04:55:21.644Z,14.80
2022-11-25T04:57:50.093Z,14.80
2022-11-25T05:00:18.871Z,14.80
2022-11-25T05:02:47.331Z,14.80
2022-11-25T05:05:16.507Z,14.90
2022-11-25T05:07:45.180Z,14.80
2022-11-25T05:10:15.399Z,14.80
2022-11-25T05:12:44.037Z,14.80
2022-11-25T05:15:13.055Z,14.80
2022-11-25T05:17:41.987Z,14.80
2022-11-25T05:20:11.680Z,14.80
2022-11-25T05:22:40.470Z,14.80
2022-11-25T05:25:10.870Z,14.80
2022-11-25T05:27:40.678Z,14.80
2022-11-25T05:30:10.369Z,14.80
2022-11-25T05:32:40.617Z,14.80
2022-11-25T05:35:09.978Z,14.80
2022-11-25T05:37:38.431Z,14.80
2022-11-25T05:40:08.300Z,14.80
2022-11-25T05:42:36.666Z,14.80
2022-11-25T05:45:07.855Z,14.80
2022-11-25T05:47:36.235Z,14.80
2022-11-25T05:50:05.246Z,14.80
2022-11-25T05:52:34.231Z,14.80
2022-11-25T05:55:02.626Z,14.80
2022-11-25T05:57:31.021Z,14.80
2022-11-25T05:59:59.421Z,14.80
2022-11-25T06:02:29.380Z,14.80
2022-11-25T06:04:57.906Z,14.80
2022-11-25T06:07:26.437Z,14.80
2022-11-25T06:09:57.660Z,14.80
2022-11-25T06:12:30.278Z,14.80
2022-11-25T06:14:58.646Z,14.80
2022-11-25T06:17:28.558Z,14.80
2022-11-25T06:19:57.059Z,14.90
2022-11-25T06:22:25.463Z,14.80
2022-11-25T06:25:00.360Z,14.80
2022-11-25T06:27:50.060Z,14.80
2022-11-25T06:30:21.038Z,14.80
2022-11-25T06:32:50.817Z,14.80
2022-11-25T06:35:19.466Z,14.90
2022-11-25T06:37:47.888Z,14.90
2022-11-25T06:40:16.576Z,14.90
2022-11-25T06:42:45.083Z,14.90
2022-11-25T06:45:13.458Z,14.90
2022-11-25T06:47:41.982Z,14.90
2022-11-25T06:50:12.573Z,14.90
2022-11-25T06:52:43.473Z,14.90
2022-11-25T06:55:12.128Z,15.00
2022-11-25T06:57:40.748Z,15.00
2022-11-25T07:00:10.230Z,15.00
2022-11-25T07:02:43.971Z,15.00
2022-11-25T07:05:14.055Z,15.00
2022-11-25T07:07:42.561Z,15.00
2022-11-25T07:10:11.531Z,15.00
2022-11-25T07:12:39.958Z,15.10
2022-11-25T07:15:08.908Z,15.10
2022-11-25T07:17:37.319Z,15.10
2022-11-25T07:20:06.833Z,15.10
2022-11-25T07:22:36.600Z,15.10
2022-11-25T07:25:05.390Z,15.10
2022-11-25T07:27:34.794Z,15.10
2022-11-25T07:30:41.597Z,15.10
2022-11-25T07:32:51.895Z,15.10
2022-11-25T07:35:20.509Z,15.10
2022-11-25T07:37:50.795Z,15.10
2022-11-25T07:40:19.580Z,15.10
2022-11-25T07:42:48.025Z,15.10
2022-11-25T07:45:16.915Z,15.10
2022-11-25T07:47:45.319Z,15.20
2022-11-25T07:50:13.907Z,15.20
2022-11-25T07:52:42.321Z,15.20
2022-11-25T07:55:12.370Z,15.20
2022-11-25T07:57:40.733Z,15.20
2022-11-25T08:00:10.383Z,15.30
2022-11-25T08:02:38.843Z,15.30
2022-11-25T08:05:08.561Z,15.30
2022-11-25T08:07:37.133Z,15.30
2022-11-25T08:10:06.532Z,15.30
2022-11-25T08:12:36.385Z,15.30
2022-11-25T08:15:05.338Z,15.30
2022-11-25T08:17:34.417Z,15.20
2022-11-25T08:20:02.853Z,15.20
2022-11-25T08:22:31.209Z,15.20
2022-11-25T08:24:59.555Z,15.20
2022-11-25T08:27:27.914Z,15.20
2022-11-25T08:29:57.694Z,15.20
2022-11-25T08:32:26.075Z,15.20
2022-11-25T08:34:54.491Z,15.20
2022-11-25T08:37:23.142Z,15.20
2022-11-25T08:39:53.306Z,15.20
2022-11-25T08:42:22.029Z,15.20
2022-11-25T08:44:55.558Z,15.20
2022-11-25T08:47:25.589Z,15.20
2022-11-25T08:49:54.407Z,15.20
2022-11-25T08:52:23.353Z,15.20
2022-11-25T08:54:52.203Z,15.20
2022-11-25T08:57:20.599Z,15.20
2022-11-25T08:59:49.168Z,15.30
2022-11-25T09:02:18.788Z,15.30
2022-11-25T09:04:48.738Z,15.30
2022-11-25T09:07:17.335Z,15.30
2022-11-25T09:09:46.295Z,15.30
2022-11-25T09:12:14.994Z,15.30
2022-11-25T09:14:43.433Z,15.30
2022-11-25T09:17:12.520Z,15.30
2022-11-25T09:19:41.337Z,15.30
2022-11-25T09:22:11.161Z,15.20
2022-11-25T09:24:39.653Z,15.20
2022-11-25T09:27:08.146Z,15.20
2022-11-25T09:29:36.935Z,15.30
2022-11-25T09:32:06.146Z,15.30
2022-11-25T09:34:34.676Z,15.30
2022-11-25T09:37:03.299Z,15.30
2022-11-25T09:39:35.737Z,15.30
2022-11-25T09:42:41.366Z,15.30
2022-11-25T09:45:35.600Z,15.30
2022-11-25T09:48:17.207Z,15.30
2022-11-25T09:50:55.266Z,15.30
2022-11-25T09:53:36.367Z,15.30
2022-11-25T09:56:12.747Z,15.30
2022-11-25T09:58:48.515Z,15.30
2022-11-25T10:01:22.406Z,15.30
2022-11-25T10:03:54.898Z,15.30
2022-11-25T10:06:26.230Z,15.30
2022-11-25T10:08:58.687Z,15.30
2022-11-25T10:11:39.887Z,15.30
2022-11-25T10:14:14.111Z,15.30
2022-11-25T10:16:51.624Z,15.30
2022-11-25T10:19:34.501Z,15.30
2022-11-25T10:22:14.598Z,15.30
2022-11-25T10:24:43.568Z,15.40
2022-11-25T10:27:20.847Z,15.30
2022-11-25T10:29:58.235Z,15.40
2022-11-25T10:32:29.323Z,15.30
2022-11-25T10:34:57.100Z,15.30
2022-11-25T10:37:30.403Z,15.40
2022-11-25T10:39:59.132Z,15.30
2022-11-25T10:42:29.915Z,15.40
2022-11-25T10:44:58.232Z,15.30
2022-11-25T10:47:40.366Z,15.40
2022-11-25T10:50:17.144Z,15.40
2022-11-25T10:52:52.836Z,15.40
2022-11-25T10:55:25.848Z,15.40
2022-11-25T10:57:56.675Z,15.40
2022-11-25T11:00:32.638Z,15.40
2022-11-25T11:03:14.959Z,15.40
2022-11-25T11:05:48.859Z,15.50
2022-11-25T11:08:23.040Z,15.40
2022-11-25T11:11:17.083Z,15.40
2022-11-25T11:13:47.805Z,15.40
2022-11-25T11:16:33.055Z,15.50
2022-11-25T11:19:01.447Z,15.50
2022-11-25T11:21:34.617Z,15.50
2022-11-25T11:24:03.895Z,15.50
2022-11-25T11:26:34.342Z,15.50
2022-11-25T11:29:11.131Z,15.50
2022-11-25T11:31:47.379Z,15.50
2022-11-25T11:34:35.011Z,15.50
2022-11-25T11:37:23.913Z,15.40
2022-11-25T11:40:04.136Z,15.50
2022-11-25T11:42:42.922Z,15.50
2022-11-25T11:45:30.261Z,15.50
2022-11-25T11:48:12.456Z,15.50
2022-11-25T11:50:46.779Z,15.50
2022-11-25T11:53:23.980Z,15.50
2022-11-25T11:56:33.492Z,15.50
2022-11-25T11:59:06.853Z,15.50
2022-11-25T12:01:47.681Z,15.40
2022-11-25T12:04:22.296Z,15.40
2022-11-25T12:07:01.617Z,15.50
2022-11-25T12:09:32.084Z,15.50
2022-11-25T12:12:05.888Z,15.50
2022-11-25T12:14:40.551Z,15.40
2022-11-25T12:17:18.497Z,15.50
2022-11-25T12:19:54.950Z,15.40
2022-11-25T12:22:27.974Z,15.50
2022-11-25T12:25:05.865Z,15.40
2022-11-25T12:27:38.831Z,15.50
2022-11-25T12:30:09.533Z,15.50
2022-11-25T12:33:00.046Z,15.50
2022-11-25T12:35:39.842Z,15.50
2022-11-25T12:38:21.075Z,15.40
2022-11-25T12:40:56.521Z,15.40
2022-11-25T12:43:33.557Z,15.40
2022-11-25T12:46:13.067Z,15.40
2022-11-25T12:48:44.446Z,15.40
2022-11-25T12:51:25.580Z,15.40
2022-11-25T12:54:08.222Z,15.40
2022-11-25T12:56:50.945Z,15.40
2022-11-25T13:00:06.001Z,15.40
2022-11-25T13:03:14.293Z,15.40
2022-11-25T13:06:07.702Z,15.40
2022-11-25T13:08:54.339Z,15.40
2022-11-25T13:11:47.179Z,15.40
2022-11-25T13:14:25.080Z,15.40
2022-11-25T13:16:56.142Z,15.40
2022-11-25T13:19:25.197Z,15.40
2022-11-25T13:22:01.145Z,15.40
2022-11-25T13:24:34.956Z,15.40
2022-11-25T13:27:05.308Z,15.40
2022-11-25T13:30:04.380Z,15.40
2022-11-25T13:32:50.399Z,15.40
2022-11-25T13:35:48.007Z,15.40
2022-11-25T13:39:04.420Z,15.40
2022-11-25T13:41:41.939Z,15.40
2022-11-25T13:44:29.738Z,15.40
2022-11-25T13:47:01.769Z,15.40
2022-11-25T13:49:44.657Z,15.40
2022-11-25T13:52:35.149Z,15.30
2022-11-25T13:55:11.358Z,15.40
2022-11-25T13:57:44.678Z,15.30
2022-11-25T14:00:49.081Z,15.40
2022-11-25T14:03:48.717Z,15.40
2022-11-25T14:07:01.554Z,15.30
2022-11-25T14:09:43.757Z,15.40
2022-11-25T14:12:39.277Z,15.40
2022-11-25T14:15:27.376Z,15.40
2022-11-25T14:18:53.191Z,15.40
2022-11-25T14:21:27.604Z,15.40
2022-11-25T14:24:12.674Z,15.40
2022-11-25T14:26:49.691Z,15.40
2022-11-25T14:29:23.257Z,15.50
2022-11-25T14:31:57.304Z,15.40
2022-11-25T14:34:31.411Z,15.40
2022-11-25T14:37:09.392Z,15.40
2022-11-25T14:39:43.352Z,15.40
2022-11-25T14:42:16.852Z,15.40
2022-11-25T14:44:50.657Z,15.40
2022-11-25T14:47:24.741Z,15.50
2022-11-25T14:50:18.801Z,15.40
2022-11-25T14:52:46.072Z,15.50
2022-11-25T14:55:15.439Z,15.50
2022-11-25T14:57:46.423Z,15.50
2022-11-25T15:00:18.457Z,15.50
2022-11-25T15:02:55.993Z,15.50
2022-11-25T15:05:27.147Z,15.50
2022-11-25T15:07:59.826Z,15.50
2022-11-25T15:10:39.264Z,15.50
2022-11-25T15:13:14.791Z,15.40
2022-11-25T15:15:48.228Z,15.40
2022-11-25T15:18:22.715Z,15.40
2022-11-25T15:20:57.553Z,15.40
2022-11-25T15:23:31.872Z,15.40
2022-11-25T15:26:01.322Z,15.40
2022-11-25T15:28:35.901Z,15.40
2022-11-25T15:31:12.751Z,15.40
2022-11-25T15:33:42.829Z,15.40
2022-11-25T15:36:11.711Z,15.40
2022-11-25T15:38:42.794Z,15.40
2022-11-25T15:41:22.062Z,15.40
2022-11-25T15:43:52.352Z,15.40
2022-11-25T15:46:23.306Z,15.40
2022-11-25T15:48:53.741Z,15.40
2022-11-25T15:51:34.610Z,15.40
2022-11-25T15:54:07.640Z,15.40
2022-11-25T15:56:41.290Z,15.40
2022-11-25T15:59:42.694Z,15.40
2022-11-25T16:02:33.838Z,15.40
2022-11-25T16:05:19.068Z,15.40
2022-11-25T16:08:03.913Z,15.40
2022-11-25T16:10:34.471Z,15.40
2022-11-25T16:13:29.133Z,15.40
2022-11-25T16:16:01.918Z,15.40
2022-11-25T16:18:40.602Z,15.40
2022-11-25T16:21:11.648Z,15.40
2022-11-25T16:23:44.279Z,15.40
2022-11-25T16:26:18.525Z,15.40
2022-11-25T16:28:54.117Z,15.40
2022-11-25T16:31:23.134Z,15.40
2022-11-25T16:33:55.300Z,15.40
2022-11-25T16:36:23.669Z,15.40
2022-11-25T16:38:54.517Z,15.40
2022-11-25T16:41:25.745Z,15.40
2022-11-25T16:43:58.387Z,15.40
2022-11-25T16:46:28.802Z,15.40
2022-11-25T16:48:58.460Z,15.40
2022-11-25T16:51:26.877Z,15.40
2022-11-25T16:53:55.250Z,15.40
2022-11-25T16:56:27.523Z,15.40
2022-11-25T16:58:56.096Z,15.40
2022-11-25T17:01:26.946Z,15.40
2022-11-25T17:03:55.359Z,15.40
2022-11-25T17:06:26.528Z,15.40
2022-11-25T17:08:54.898Z,15.40
2022-11-25T17:11:29.434Z,15.40
2022-11-25T17:13:59.684Z,15.30
2022-11-25T17:16:29.917Z,15.40
2022-11-25T17:19:00.107Z,15.30
2022-11-25T17:21:30.638Z,15.30
2022-11-25T17:24:02.766Z,15.30
2022-11-25T17:26:37.558Z,15.30
2022-11-25T17:29:09.049Z,15.30
2022-11-25T17:31:39.593Z,15.30
2022-11-25T17:34:07.906Z,15.30
2022-11-25T17:36:37.647Z,15.30
2022-11-25T17:39:05.883Z,15.30
2022-11-25T17:41:39.795Z,15.30
2022-11-25T17:44:17.588Z,15.30
2022-11-25T17:46:45.877Z,15.30
2022-11-25T17:49:16.335Z,15.30
2022-11-25T17:51:46.042Z,15.30
2022-11-25T17:54:14.693Z,15.30
2022-11-25T17:56:47.797Z,15.30
2022-11-25T17:59:24.946Z,15.30
2022-11-25T18:01:53.295Z,15.30
2022-11-25T18:04:24.406Z,15.30
2022-11-25T18:06:54.692Z,15.30
2022-11-25T18:09:23.327Z,15.30
2022-11-25T18:11:54.979Z,15.30
2022-11-25T18:14:28.389Z,15.30
2022-11-25T18:16:57.316Z,15.40
2022-11-25T18:19:25.850Z,15.40
2022-11-25T18:22:00.129Z,15.30
2022-11-25T18:24:28.496Z,15.40
2022-11-25T18:26:57.828Z,15.40
2022-11-25T18:29:28.216Z,15.40
2022-11-25T18:31:59.461Z,15.40
2022-11-25T18:34:27.958Z,15.40
2022-11-25T18:36:57.608Z,15.40
2022-11-25T18:39:25.948Z,15.40
2022-11-25T18:41:58.226Z,15.40
2022-11-25T18:44:28.044Z,15.40
2022-11-25T18:46:56.456Z,15.40
2022-11-25T18:49:24.959Z,15.40
2022-11-25T18:51:53.181Z,15.40
2022-11-25T18:54:22.896Z,15.40
2022-11-25T18:56:52.955Z,15.40
2022-11-25T18:59:27.784Z,15.40
2022-11-25T19:01:56.476Z,15.50
2022-11-25T19:04:24.943Z,15.50
2022-11-25T19:06:53.364Z,15.50
2022-11-25T19:09:23.008Z,15.50
2022-11-25T19:11:54.952Z,15.50
2022-11-25T19:14:30.326Z,15.50
2022-11-25T19:17:02.330Z,15.50
2022-11-25T19:19:30.953Z,15.50
2022-11-25T19:22:01.543Z,15.50
2022-11-25T19:24:31.368Z,15.50
2022-11-25T19:26:59.981Z,15.50
2022-11-25T19:29:37.511Z,15.50
2022-11-25T19:32:18.476Z,15.60
2022-11-25T19:34:49.204Z,15.50
2022-11-25T19:37:21.931Z,15.50
2022-11-25T19:39:54.497Z,15.60
2022-11-25T19:42:24.809Z,15.60
2022-11-25T19:44:53.798Z,15.60
2022-11-25T19:47:24.881Z,15.60
2022-11-25T19:49:55.869Z,15.60
2022-11-25T19:52:27.002Z,15.60
2022-11-25T19:54:57.424Z,15.60
2022-11-25T19:57:26.470Z,15.60
2022-11-25T19:59:54.769Z,15.60
2022-11-25T20:02:26.273Z,15.50
2022-11-25T20:04:58.301Z,15.60
2022-11-25T20:07:30.100Z,15.50
2022-11-25T20:10:04.848Z,15.50
2022-11-25T20:12:34.220Z,15.60
2022-11-25T20:15:04.944Z,15.60
2022-11-25T20:17:38.959Z,15.60
2022-11-25T20:20:14.982Z,15.60
2022-11-25T20:22:47.844Z,15.60
2022-11-25T20:25:17.998Z,15.60
2022-11-25T20:27:47.587Z,15.60
2022-11-25T20:30:19.412Z,15.60
2022-11-25T20:32:48.656Z,15.60
2022-11-25T20:35:17.913Z,15.60
2022-11-25T20:37:54.846Z,15.60
2022-11-25T20:40:29.159Z,15.60
2022-11-25T20:42:59.783Z,15.60
2022-11-25T20:45:29.104Z,15.60
2022-11-25T20:47:59.746Z,15.60
2022-11-25T20:50:31.569Z,15.60
2022-11-25T20:53:00.746Z,15.70
2022-11-25T20:55:30.763Z,15.70
2022-11-25T20:57:59.043Z,15.60
2022-11-25T21:00:29.622Z,15.60
2022-11-25T21:02:58.587Z,15.60
2022-11-25T21:05:28.790Z,15.60
2022-11-25T21:07:57.155Z,15.60
2022-11-25T21:10:29.094Z,15.60
2022-11-25T21:12:59.779Z,15.60
2022-11-25T21:15:29.585Z,15.50
2022-11-25T21:17:59.776Z,15.50
2022-11-25T21:20:29.095Z,15.50
2022-11-25T21:23:00.684Z,15.50
2022-11-25T21:25:29.292Z,15.50
2022-11-25T21:27:59.944Z,15.50
2022-11-25T21:30:32.448Z,15.50
2022-11-25T21:33:03.067Z,15.50
2022-11-25T21:35:35.133Z,15.50
2022-11-25T21:38:06.890Z,15.50
2022-11-25T21:40:38.736Z,15.40
2022-11-25T21:43:19.876Z,15.40
2022-11-25T21:45:52.281Z,15.40
2022-11-25T21:48:23.779Z,15.40
2022-11-25T21:50:55.246Z,15.40
2022-11-25T21:53:23.761Z,15.40
2022-11-25T21:55:52.883Z,15.40
2022-11-25T21:58:26.431Z,15.40
2022-11-25T22:00:56.542Z,15.40
2022-11-25T22:03:26.116Z,15.50
2022-11-25T22:05:54.571Z,15.40
2022-11-25T22:08:23.982Z,15.40
2022-11-25T22:10:55.270Z,15.40
2022-11-25T22:13:31.113Z,15.40
2022-11-25T22:16:00.360Z,15.40
2022-11-25T22:18:30.671Z,15.40
2022-11-25T22:20:59.421Z,15.40
2022-11-25T22:23:28.547Z,15.50
2022-11-25T22:25:57.595Z,15.50
2022-11-25T22:28:29.981Z,15.50
2022-11-25T22:31:01.613Z,15.40
2022-11-25T22:33:32.488Z,15.40
2022-11-25T22:36:01.339Z,15.40
2022-11-25T22:38:30.702Z,15.40
2022-11-25T22:41:02.401Z,15.40
2022-11-25T22:43:35.781Z,15.40
2022-11-25T22:46:05.617Z,15.40
2022-11-25T22:48:36.562Z,15.40
2022-11-25T22:51:05.115Z,15.40
2022-11-25T22:53:34.150Z,15.40
2022-11-25T22:56:02.635Z,15.40
2022-11-25T22:58:32.324Z,15.40
2022-11-25T23:01:00.596Z,15.40
2022-11-25T23:03:30.861Z,15.40
2022-11-25T23:05:59.167Z,15.40
2022-11-25T23:08:31.754Z,15.30
2022-11-25T23:11:00.738Z,15.30
2022-11-25T23:13:29.032Z,15.30
2022-11-25T23:16:00.911Z,15.30
2022-11-25T23:18:37.933Z,15.30
2022-11-25T23:21:07.872Z,15.30
2022-11-25T23:23:36.167Z,15.30
2022-11-25T23:26:04.553Z,15.30
2022-11-25T23:28:32.913Z,15.30
2022-11-25T23:31:03.025Z,15.30
2022-11-25T23:33:37.092Z,15.30
2022-11-25T23:36:09.355Z,15.30
2022-11-25T23:38:42.940Z,15.30
2022-11-25T23:41:16.593Z,15.30
2022-11-25T23:43:45.216Z,15.30
2022-11-25T23:46:17.361Z,15.30
2022-11-25T23:48:50.971Z,15.30
2022-11-25T23:51:19.473Z,15.30
2022-11-25T23:53:47.794Z,15.40
2022-11-25T23:56:16.393Z,15.30
2022-11-25T23:58:44.940Z,15.30
